Terminal Aerodrome Forecast
Issued by NWS

Current Version | Previous Version | Text Only | Print | Product List | Glossary On
Versions: 1 2 3 4 5 6 7 8 9 10 11 12 13 14 15 16 17 18
000
FTUS41 KBTV 291720
TAFRUT
TAF
KRUT 291720Z 2918/3018 VRB04KT P6SM SKC
     FM300200 15010KT P6SM BKN150
     FM300700 16009KT P6SM BKN150 WS020/21040KT
     FM301000 17011G20KT 3SM -SHSN BR OVC040
     FM301500 21012G25KT 6SM -SHRA BR OVC025
      AMD LTD TO CLD VIS AND WIND=

USA.gov is the U.S. government's official web portal to all federal, state and local government web resources and services.